Time;durP1;ratioP1;P1;durP2;ratioP2;P2;SDS_P1;SDS_P2;PMS_P1;PMS_P2;Temp;Humidity;BMP_temperature;BMP_pressure;BME280_temperature;BME280_humidity;BME280_pressure;Samples;Min_cycle;Max_cycle;Signal;HPM_P1;HPM_P2
2023/01/22 00:00:27;;;;;;;83.18;39.85;;;-3276.10;92.20;;;;;;5061603;28;20496;-71
2023/01/22 00:02:53;;;;;;;84.40;37.97;;;-3276.00;92.30;;;;;;5062317;28;20036;-71
2023/01/22 00:05:20;;;;;;;83.93;37.65;;;-3276.00;92.20;;;;;;5065717;28;20021;-74
2023/01/22 00:07:46;;;;;;;88.43;38.25;;;-3275.90;92.20;;;;;;5061981;28;20065;-73
2023/01/22 00:10:12;;;;;;;119.05;41.20;;;-3275.70;92.20;;;;;;5064140;28;20113;-71
2023/01/22 00:12:38;;;;;;;116.13;41.55;;;-3275.70;92.10;;;;;;5067081;28;20040;-72
2023/01/22 00:15:04;;;;;;;170.02;39.80;;;-3275.60;92.30;;;;;;5065409;28;20028;-74
2023/01/22 00:17:30;;;;;;;104.60;39.67;;;-3275.50;92.40;;;;;;5048026;28;20550;-70
2023/01/22 00:19:56;;;;;;;127.57;41.50;;;-3275.50;92.50;;;;;;5058866;28;20121;-72
2023/01/22 00:22:21;;;;;;;161.65;44.85;;;-3275.50;92.60;;;;;;5068238;28;20416;-71
2023/01/22 00:24:47;;;;;;;177.23;47.20;;;-3275.40;92.70;;;;;;5067266;28;20365;-73
2023/01/22 00:27:13;;;;;;;133.98;45.25;;;-3275.30;93.00;;;;;;5065238;28;20093;-71
2023/01/22 00:29:39;;;;;;;153.63;45.63;;;-3275.30;93.10;;;;;;5062342;28;20025;-70
2023/01/22 00:32:05;;;;;;;181.68;46.58;;;-3275.40;93.40;;;;;;5064631;28;20051;-72
2023/01/22 00:34:31;;;;;;;189.95;48.83;;;-3275.40;93.40;;;;;;5066330;28;20055;-73
2023/01/22 00:36:57;;;;;;;183.27;52.00;;;-3275.40;93.50;;;;;;5058517;28;20032;-70
2023/01/22 00:39:23;;;;;;;236.63;51.22;;;-3275.50;93.60;;;;;;5052848;28;20345;-73
2023/01/22 00:41:49;;;;;;;192.85;49.25;;;-3275.40;93.60;;;;;;5061602;28;20039;-70
2023/01/22 00:44:15;;;;;;;161.63;51.45;;;-3275.50;93.70;;;;;;5057729;28;20025;-73
2023/01/22 00:46:41;;;;;;;152.85;51.75;;;-3275.50;93.70;;;;;;5064560;28;20025;-72
2023/01/22 00:49:06;;;;;;;150.40;51.30;;;-3275.60;93.80;;;;;;5065176;28;20417;-71
2023/01/22 00:51:35;;;;;;;211.77;53.90;;;-3275.70;93.80;;;;;;5043727;28;20044;-74
2023/01/22 00:54:01;;;;;;;172.68;53.40;;;-3275.60;93.70;;;;;;5053737;28;20108;-71
2023/01/22 00:56:27;;;;;;;151.30;51.30;;;-3275.70;93.80;;;;;;5061265;28;20136;-71
2023/01/22 00:58:52;;;;;;;150.05;53.83;;;-3275.70;93.70;;;;;;5064435;28;20032;-71
2023/01/22 01:01:19;;;;;;;166.77;54.20;;;-3275.60;93.60;;;;;;5061154;28;20037;-74
2023/01/22 01:03:45;;;;;;;181.55;54.17;;;-3275.60;93.70;;;;;;5058266;28;20021;-71
2023/01/22 01:06:19;;;;;;;218.10;58.35;;;-3275.70;93.70;;;;;;5066233;28;20344;-71
2023/01/22 01:08:46;;;;;;;212.35;58.53;;;-3275.60;93.70;;;;;;5046301;28;20028;-74
2023/01/22 01:11:20;;;;;;;190.70;56.67;;;-3275.60;93.80;;;;;;5058145;28;20033;-72
2023/01/22 01:13:46;;;;;;;174.15;53.92;;;-3275.70;93.90;;;;;;5063566;28;21052;-72
2023/01/22 01:16:17;;;;;;;183.27;54.83;;;-3275.70;93.90;;;;;;5063554;28;20515;-72
2023/01/22 01:18:42;;;;;;;182.98;55.22;;;-3275.80;93.90;;;;;;5067940;28;20024;-71
2023/01/22 01:21:10;;;;;;;177.95;55.40;;;-3275.80;93.90;;;;;;5060689;28;20052;-71
2023/01/22 01:23:36;;;;;;;165.13;53.90;;;-3275.80;93.90;;;;;;5062755;28;20125;-71
2023/01/22 01:26:11;;;;;;;146.55;49.60;;;-3275.70;93.80;;;;;;5066275;28;20044;-75
2023/01/22 01:28:38;;;;;;;153.15;46.80;;;-3275.60;93.80;;;;;;5058988;28;20028;-71
2023/01/22 01:31:06;;;;;;;163.50;49.35;;;-3275.50;93.90;;;;;;5064257;28;20534;-73
2023/01/22 01:33:32;;;;;;;154.30;50.35;;;-3275.50;93.90;;;;;;5065749;28;20036;-72
2023/01/22 01:36:07;;;;;;;155.63;50.10;;;-3275.60;94.00;;;;;;5061232;28;20438;-72
2023/01/22 01:38:32;;;;;;;;;;;-3275.60;94.00;;;;;;5062604;28;20057;-71
2023/01/22 01:40:59;;;;;;;139.13;42.90;;;-3275.50;94.10;;;;;;5046389;28;20395;-72
2023/01/22 01:43:24;;;;;;;118.13;38.03;;;-3275.60;94.20;;;;;;5045958;28;20100;-71
2023/01/22 01:45:50;;;;;;;115.97;37.22;;;-3275.60;94.20;;;;;;5061150;28;20062;-71
2023/01/22 01:48:35;;;;;;;105.97;37.90;;;-3275.70;94.20;;;;;;5067610;28;20059;-71
2023/01/22 01:51:24;;;;;;;107.47;35.58;;;-3275.60;94.10;;;;;;5059430;28;20029;-72
2023/01/22 01:53:50;;;;;;;104.85;36.53;;;-3275.50;94.10;;;;;;5042744;28;20374;-72
2023/01/22 01:56:26;;;;;;;130.63;40.63;;;-3275.60;94.10;;;;;;5065346;28;20043;-72
2023/01/22 01:58:56;;;;;;;113.80;40.22;;;-3275.60;94.10;;;;;;5060585;28;20393;-73
2023/01/22 02:01:22;;;;;;;110.30;38.78;;;-3275.70;94.10;;;;;;5061923;28;20561;-71
2023/01/22 02:03:49;;;;;;;127.18;39.83;;;-3275.70;94.10;;;;;;5062169;28;20025;-71
2023/01/22 02:06:17;;;;;;;134.52;41.42;;;-3275.70;94.20;;;;;;5056735;28;20037;-72
2023/01/22 02:08:46;;;;;;;135.93;42.45;;;-3275.70;94.30;;;;;;5062720;28;20599;-73
2023/01/22 02:11:13;;;;;;;121.47;39.97;;;-3275.80;94.30;;;;;;5066982;28;20106;-71
2023/01/22 02:13:43;;;;;;;128.07;42.03;;;-3275.90;94.40;;;;;;5041229;28;20392;-74
2023/01/22 02:16:10;;;;;;;139.95;42.80;;;-3275.90;94.40;;;;;;5062027;28;20512;-73
2023/01/22 02:18:36;;;;;;;124.53;42.42;;;-3276.00;94.40;;;;;;5063244;28;20111;-71
2023/01/22 02:21:02;;;;;;;130.55;41.90;;;-3276.00;94.40;;;;;;5057011;28;20171;-74
2023/01/22 02:23:30;;;;;;;131.02;44.17;;;-3276.10;94.40;;;;;;5060335;28;20135;-71
2023/01/22 02:25:57;;;;;;;132.55;41.40;;;-3276.00;94.40;;;;;;5066992;28;20392;-72
2023/01/22 02:28:23;;;;;;;129.00;43.13;;;-3276.10;94.40;;;;;;5059778;28;20066;-75
2023/01/22 02:30:49;;;;;;;127.43;41.80;;;-3276.10;94.40;;;;;;5067703;28;20067;-72
2023/01/22 02:33:15;;;;;;;124.38;41.13;;;-3276.20;94.40;;;;;;5060364;28;20472;-71
2023/01/22 02:35:41;;;;;;;126.53;41.47;;;-3276.20;94.40;;;;;;5060317;28;20055;-72
2023/01/22 02:38:10;;;;;;;120.07;39.85;;;-3276.20;94.40;;;;;;5059548;28;20649;-72
2023/01/22 02:40:47;;;;;;;128.55;40.58;;;-3276.30;94.30;;;;;;5055025;28;20047;-72
2023/01/22 02:43:13;;;;;;;119.15;40.83;;;-3276.40;94.40;;;;;;5061260;28;20024;-73
2023/01/22 02:45:39;;;;;;;130.50;42.28;;;-3276.30;94.30;;;;;;5068017;28;20028;-72
2023/01/22 02:48:05;;;;;;;122.15;41.55;;;-3276.40;94.30;;;;;;5063568;28;20028;-72
2023/01/22 02:50:30;;;;;;;111.90;39.08;;;-3276.40;94.30;;;;;;5064286;28;20365;-72
2023/01/22 02:52:56;;;;;;;124.32;40.95;;;-3276.40;94.20;;;;;;5059834;28;20025;-72
2023/01/22 02:55:22;;;;;;;128.38;43.10;;;-3276.50;94.20;;;;;;5059650;28;21037;-72
2023/01/22 02:57:47;;;;;;;133.60;42.47;;;-3276.50;94.20;;;;;;5060007;28;20480;-73
2023/01/22 03:00:13;;;;;;;131.70;43.15;;;-3276.50;94.00;;;;;;5055518;28;20109;-71
2023/01/22 03:02:39;;;;;;;129.80;42.95;;;-3276.50;94.10;;;;;;5059356;28;20039;-73
2023/01/22 03:05:05;;;;;;;111.05;42.78;;;-3276.50;94.10;;;;;;5041933;28;20396;-72
2023/01/22 03:07:41;;;;;;;130.93;45.53;;;-3276.50;94.00;;;;;;5061074;28;20029;-72
2023/01/22 03:10:13;;;;;;;123.88;43.88;;;-3276.50;94.00;;;;;;5063120;28;20017;-72
2023/01/22 03:23:37;;;;;;;128.33;42.87;;;-3276.50;94.00;;;;;;5058870;28;20451;-73
2023/01/22 03:26:03;;;;;;;122.30;44.42;;;-3276.50;93.90;;;;;;5060300;28;20275;-73
2023/01/22 03:28:28;;;;;;;121.63;42.75;;;-3276.50;93.90;;;;;;5060062;28;20031;-72
2023/01/22 03:30:54;;;;;;;136.52;43.20;;;-3276.50;93.90;;;;;;5061745;28;20028;-73
2023/01/22 03:33:20;;;;;;;131.95;44.42;;;-3276.50;93.80;;;;;;5060842;28;20032;-71
2023/01/22 03:35:45;;;;;;;125.95;41.38;;;-3276.50;93.80;;;;;;5040967;28;20031;-74
2023/01/22 03:38:11;;;;;;;128.85;43.03;;;-3276.40;93.70;;;;;;5064822;28;20029;-74
2023/01/22 03:40:37;;;;;;;136.15;42.97;;;-3276.40;93.80;;;;;;5068450;28;20472;-71
2023/01/22 03:43:02;;;;;;;126.60;41.45;;;-3276.40;93.90;;;;;;5061784;28;20029;-73
2023/01/22 03:45:28;;;;;;;127.72;41.03;;;-3276.40;93.90;;;;;;5064737;28;20268;-73
2023/01/22 03:47:54;;;;;;;126.75;41.97;;;-3276.40;93.90;;;;;;5059970;28;20027;-72
2023/01/22 03:50:19;;;;;;;120.78;42.38;;;-3276.40;93.80;;;;;;5060792;28;20082;-73
2023/01/22 03:52:45;;;;;;;134.77;43.97;;;-3276.40;93.90;;;;;;5060647;28;20089;-72
2023/01/22 03:55:11;;;;;;;137.55;42.13;;;-3276.40;93.80;;;;;;5063931;28;20103;-74
2023/01/22 03:57:36;;;;;;;129.98;43.70;;;-3276.50;93.90;;;;;;5062179;28;20536;-71
2023/01/22 04:00:06;;;;;;;133.02;44.92;;;-3276.40;93.80;;;;;;5059809;28;20029;-74
2023/01/22 04:02:32;;;;;;;132.88;42.55;;;-3276.50;93.90;;;;;;5061788;28;20460;-73
2023/01/22 04:04:58;;;;;;;128.82;43.22;;;-3276.50;93.80;;;;;;5062342;28;20516;-71
2023/01/22 04:07:24;;;;;;;136.63;45.75;;;-3276.50;93.80;;;;;;5054780;28;20068;-71
2023/01/22 04:09:50;;;;;;;137.43;44.42;;;-3276.50;93.80;;;;;;5060619;28;20086;-72
2023/01/22 04:12:15;;;;;;;134.10;45.40;;;-3276.50;93.80;;;;;;5061694;28;20029;-71
2023/01/22 04:14:41;;;;;;;133.93;46.33;;;-3276.50;93.90;;;;;;5061954;28;20036;-74
2023/01/22 04:17:07;;;;;;;119.72;44.00;;;-3276.50;93.90;;;;;;5063670;28;20313;-71
2023/01/22 04:19:32;;;;;;;135.50;45.63;;;-3276.50;93.80;;;;;;5054124;28;20032;-72
2023/01/22 04:21:58;;;;;;;134.30;45.08;;;-3276.40;93.80;;;;;;5060063;28;20590;-71
2023/01/22 04:24:23;;;;;;;143.68;45.60;;;-3276.50;93.80;;;;;;5064272;28;20020;-70
2023/01/22 04:26:51;;;;;;;141.35;46.95;;;-3276.50;93.80;;;;;;5061829;28;20036;-71
2023/01/22 04:29:17;;;;;;;138.90;44.97;;;-3276.40;93.80;;;;;;5069283;28;20107;-71
2023/01/22 04:31:43;;;;;;;147.02;46.15;;;-3276.50;93.80;;;;;;5066613;28;20140;-71
2023/01/22 04:34:09;;;;;;;139.38;44.80;;;-3276.50;93.80;;;;;;5065644;28;20029;-73
2023/01/22 04:36:34;;;;;;;137.65;44.33;;;-3276.50;93.70;;;;;;5064138;28;20540;-71
2023/01/22 04:39:00;;;;;;;150.25;44.35;;;-3276.50;93.70;;;;;;5060740;28;20098;-72
2023/01/22 04:41:26;;;;;;;118.55;43.40;;;-3276.40;93.70;;;;;;5067033;28;20048;-72
2023/01/22 04:43:51;;;;;;;130.40;43.80;;;-3276.50;93.70;;;;;;5065378;28;20078;-71
2023/01/22 04:46:17;;;;;;;136.13;44.42;;;-3276.50;93.70;;;;;;5066772;28;20410;-72
2023/01/22 04:48:44;;;;;;;128.15;42.20;;;-3276.40;93.70;;;;;;5041945;28;20052;-71
2023/01/22 04:51:10;;;;;;;126.65;42.80;;;-3276.40;93.70;;;;;;5065778;28;20025;-71
2023/01/22 04:53:36;;;;;;;124.00;41.92;;;-3276.50;93.80;;;;;;5063685;28;21114;-73
2023/01/22 04:56:02;;;;;;;128.23;42.50;;;-3276.50;93.80;;;;;;5066485;28;20047;-75
2023/01/22 04:58:28;;;;;;;126.47;42.75;;;-3276.50;93.70;;;;;;5061442;28;20408;-71
2023/01/22 05:00:55;;;;;;;117.50;42.15;;;-3276.50;93.70;;;;;;5059437;28;20049;-72
2023/01/22 05:03:21;;;;;;;111.45;38.13;;;-3276.50;93.70;;;;;;5062686;28;20024;-71
2023/01/22 05:05:46;;;;;;;106.70;38.20;;;-3276.50;93.70;;;;;;5066670;28;20333;-73
2023/01/22 05:08:12;;;;;;;126.43;40.83;;;-3276.50;93.70;;;;;;5062490;28;20028;-72
2023/01/22 05:10:38;;;;;;;116.35;41.17;;;-3276.50;93.70;;;;;;5065133;28;20021;-72
2023/01/22 05:13:05;;;;;;;108.15;39.53;;;-3276.50;93.80;;;;;;5047662;28;20020;-73
2023/01/22 05:15:31;;;;;;;126.60;42.63;;;-3276.50;93.80;;;;;;5060346;28;20458;-72
2023/01/22 05:17:57;;;;;;;112.68;40.00;;;-3276.50;93.80;;;;;;5068503;28;20016;-72
2023/01/22 05:20:24;;;;;;;134.75;43.85;;;-3276.50;93.80;;;;;;5060563;28;20036;-74
2023/01/22 05:22:50;;;;;;;111.40;39.13;;;-3276.50;93.80;;;;;;5058069;28;20049;-72
2023/01/22 05:25:16;;;;;;;112.53;40.25;;;-3276.50;93.80;;;;;;5065835;28;20028;-71
2023/01/22 05:27:42;;;;;;;102.25;37.35;;;-3276.50;93.70;;;;;;5066454;28;20090;-74
2023/01/22 05:30:09;;;;;;;108.97;38.53;;;-3276.40;93.70;;;;;;5059167;28;20032;-73
2023/01/22 05:32:35;;;;;;;127.20;40.33;;;-3276.30;93.70;;;;;;5065082;28;20020;-73
2023/01/22 05:35:01;;;;;;;107.40;38.03;;;-3276.30;93.60;;;;;;5063216;28;20020;-72
2023/01/22 05:37:27;;;;;;;114.43;39.22;;;-3276.30;93.70;;;;;;5058328;28;20476;-72
2023/01/22 05:39:53;;;;;;;109.90;38.65;;;-3276.40;93.80;;;;;;5064798;28;20021;-73
2023/01/22 05:42:19;;;;;;;122.50;39.63;;;-3276.40;93.70;;;;;;5060744;28;20041;-72
2023/01/22 05:44:45;;;;;;;106.22;38.80;;;-3276.40;93.80;;;;;;5045821;28;20542;-72
2023/01/22 05:47:12;;;;;;;111.28;38.47;;;-3276.40;93.70;;;;;;5064811;28;20028;-72
2023/01/22 05:49:38;;;;;;;104.72;37.50;;;-3276.50;93.70;;;;;;5061463;28;20486;-72
2023/01/22 05:52:04;;;;;;;101.28;37.47;;;-3276.50;93.70;;;;;;5063540;28;20040;-73
2023/01/22 05:54:29;;;;;;;107.03;36.47;;;-3276.50;93.70;;;;;;5064558;28;20373;-73
2023/01/22 05:56:55;;;;;;;94.90;36.22;;;-3276.50;93.70;;;;;;5059541;28;20065;-71
2023/01/22 05:59:21;;;;;;;108.57;38.33;;;-3276.50;93.70;;;;;;5059383;28;20029;-73
2023/01/22 06:01:46;;;;;;;97.18;37.17;;;-3276.40;93.70;;;;;;5067373;28;20321;-71
2023/01/22 06:04:12;;;;;;;107.18;38.75;;;-3276.50;93.80;;;;;;5057012;28;20040;-71
2023/01/22 06:06:38;;;;;;;105.25;37.67;;;-3276.50;93.70;;;;;;5068622;28;20444;-72
2023/01/22 06:09:04;;;;;;;87.18;35.38;;;-3276.50;93.80;;;;;;5063333;28;20431;-71
2023/01/22 06:11:29;;;;;;;95.80;36.10;;;-3276.50;93.80;;;;;;5063721;28;20063;-74
2023/01/22 06:13:55;;;;;;;92.82;35.88;;;-3276.50;93.80;;;;;;5062106;28;20422;-72
2023/01/22 06:16:21;;;;;;;78.40;31.80;;;-3276.60;93.80;;;;;;5058421;28;20047;-72
2023/01/22 06:18:46;;;;;;;79.25;33.90;;;-3276.60;93.70;;;;;;5063987;28;20603;-74
2023/01/22 06:21:12;;;;;;;78.13;32.28;;;-3276.60;93.60;;;;;;5062541;28;20065;-73
2023/01/22 06:23:38;;;;;;;76.38;32.67;;;-3276.70;93.60;;;;;;5060557;28;20048;-72
2023/01/22 06:26:04;;;;;;;70.07;31.02;;;-3276.70;93.50;;;;;;5064574;28;20016;-72
2023/01/22 06:28:31;;;;;;;62.03;30.67;;;0.00;93.50;;;;;;5057221;28;20469;-72
2023/01/22 06:31:04;;;;;;;53.47;27.65;;;0.00;93.50;;;;;;5062155;28;20031;-73
2023/01/22 06:33:31;;;;;;;54.83;26.98;;;0.00;93.40;;;;;;5067529;28;20028;-72
2023/01/22 06:35:57;;;;;;;51.35;28.02;;;0.10;93.40;;;;;;5059215;28;20017;-71
2023/01/22 06:38:23;;;;;;;41.38;24.75;;;0.10;93.30;;;;;;5062835;28;20346;-71
2023/01/22 06:40:57;;;;;;;41.65;24.33;;;0.20;93.20;;;;;;5069599;28;20050;-71
2023/01/22 06:43:23;;;;;;;42.38;24.83;;;0.20;92.80;;;;;;5067383;28;20028;-72
2023/01/22 06:45:49;;;;;;;39.70;24.58;;;0.30;92.50;;;;;;5066161;28;20115;-72
2023/01/22 06:48:15;;;;;;;38.78;22.50;;;0.40;92.30;;;;;;5063590;28;20099;-72
2023/01/22 06:50:41;;;;;;;34.20;21.48;;;0.40;92.10;;;;;;5047047;28;20043;-71
2023/01/22 06:53:07;;;;;;;32.72;21.60;;;0.40;91.80;;;;;;5057328;28;20027;-72
2023/01/22 06:55:32;;;;;;;32.75;20.40;;;0.50;91.60;;;;;;5061717;28;20411;-72
2023/01/22 06:57:58;;;;;;;31.02;19.83;;;0.60;91.20;;;;;;5043724;28;20108;-71
2023/01/22 07:00:24;;;;;;;28.85;21.40;;;0.60;90.80;;;;;;5042489;28;20582;-73
2023/01/22 07:02:49;;;;;;;26.33;18.85;;;0.60;90.60;;;;;;5065983;28;20136;-72
2023/01/22 07:05:15;;;;;;;25.13;17.98;;;0.70;90.20;;;;;;5056581;28;20466;-72
2023/01/22 07:07:41;;;;;;;24.33;17.85;;;0.80;89.70;;;;;;5063862;28;20036;-72
2023/01/22 07:10:08;;;;;;;24.02;17.85;;;0.90;89.10;;;;;;5049523;28;20287;-73
2023/01/22 07:12:34;;;;;;;22.25;16.05;;;1.00;88.70;;;;;;5059399;28;20040;-72
2023/01/22 07:15:00;;;;;;;22.10;16.23;;;1.00;87.80;;;;;;5061814;28;20036;-72
2023/01/22 07:17:26;;;;;;;22.23;15.48;;;1.20;86.60;;;;;;5065332;28;20048;-71
2023/01/22 07:19:51;;;;;;;20.70;15.05;;;1.30;85.80;;;;;;5057754;28;20033;-73
2023/01/22 07:22:17;;;;;;;20.35;14.82;;;1.40;85.50;;;;;;5059227;28;20048;-71
2023/01/22 07:24:42;;;;;;;20.17;13.98;;;1.40;85.10;;;;;;5057104;28;20020;-71
2023/01/22 07:27:08;;;;;;;19.80;13.57;;;1.40;85.10;;;;;;5043648;28;20090;-72
2023/01/22 07:29:34;;;;;;;22.65;15.25;;;1.40;85.30;;;;;;5061128;28;20032;-71
2023/01/22 07:31:59;;;;;;;22.08;15.32;;;1.40;85.60;;;;;;5065577;28;20028;-74
2023/01/22 07:34:25;;;;;;;22.15;15.88;;;1.30;85.70;;;;;;5060868;28;20025;-71
2023/01/22 07:36:51;;;;;;;22.63;16.10;;;1.30;85.80;;;;;;5063053;28;20033;-71
2023/01/22 07:39:16;;;;;;;24.13;16.15;;;1.30;86.00;;;;;;5067484;28;20036;-74
2023/01/22 07:41:42;;;;;;;22.10;15.95;;;1.30;86.10;;;;;;5061223;28;21680;-73
2023/01/22 07:44:09;;;;;;;23.45;16.17;;;1.30;86.20;;;;;;5061242;28;20109;-72
2023/01/22 07:46:35;;;;;;;26.02;18.58;;;1.30;86.10;;;;;;5062211;28;20465;-71
2023/01/22 07:49:00;;;;;;;24.48;17.48;;;1.20;86.30;;;;;;5063281;28;20032;-71
2023/01/22 07:51:26;;;;;;;24.13;17.08;;;1.30;86.40;;;;;;5064561;28;20127;-73
2023/01/22 07:53:52;;;;;;;23.83;16.38;;;1.20;86.50;;;;;;5041706;28;20017;-72
2023/01/22 07:56:18;;;;;;;23.27;17.35;;;1.30;86.50;;;;;;5059069;28;20063;-71
2023/01/22 07:58:44;;;;;;;26.30;18.42;;;1.30;86.50;;;;;;5046041;28;20361;-75
2023/01/22 08:01:10;;;;;;;25.00;16.60;;;1.30;86.40;;;;;;5067112;28;20040;-72
2023/01/22 08:03:36;;;;;;;22.38;15.98;;;1.30;86.40;;;;;;5050766;28;20024;-72
2023/01/22 08:06:11;;;;;;;22.83;16.98;;;1.30;86.30;;;;;;5063977;28;20033;-78
2023/01/22 08:08:37;;;;;;;23.52;16.20;;;1.30;86.10;;;;;;5069695;28;20041;-72
2023/01/22 08:11:03;;;;;;;22.08;15.77;;;1.40;86.00;;;;;;5054564;28;20107;-75
2023/01/22 08:13:29;;;;;;;21.20;15.52;;;1.40;85.90;;;;;;5049129;28;20162;-74
2023/01/22 08:15:55;;;;;;;20.00;14.77;;;1.50;85.60;;;;;;5059000;28;20031;-72
2023/01/22 08:18:20;;;;;;;24.35;15.55;;;1.60;85.60;;;;;;5064005;28;20032;-73
2023/01/22 08:20:46;;;;;;;23.13;16.33;;;1.60;85.40;;;;;;5064110;28;20424;-72
2023/01/22 08:23:12;;;;;;;24.65;15.77;;;1.60;85.30;;;;;;5039751;28;20405;-75
2023/01/22 08:25:38;;;;;;;26.90;16.27;;;1.60;85.30;;;;;;5054946;28;20033;-74
2023/01/22 08:28:05;;;;;;;27.13;16.38;;;1.70;85.10;;;;;;5057545;28;20537;-72
2023/01/22 08:30:32;;;;;;;20.35;13.45;;;1.70;85.00;;;;;;5060630;28;20029;-72
2023/01/22 08:32:58;;;;;;;20.10;14.10;;;1.70;84.60;;;;;;5057240;28;20056;-75
2023/01/22 08:35:23;;;;;;;18.50;13.48;;;1.70;84.30;;;;;;5062628;28;20062;-72
2023/01/22 08:37:49;;;;;;;17.23;12.88;;;1.70;84.20;;;;;;5064640;28;20060;-72
2023/01/22 08:40:15;;;;;;;19.63;13.07;;;1.80;84.10;;;;;;5049541;28;20031;-73
2023/01/22 08:42:41;;;;;;;16.65;12.43;;;1.80;83.70;;;;;;5061094;28;20803;-74
2023/01/22 08:45:07;;;;;;;19.73;13.20;;;1.80;83.50;;;;;;5058706;28;20162;-74
2023/01/22 08:47:33;;;;;;;16.40;11.93;;;1.90;83.40;;;;;;5060345;28;20860;-72
2023/01/22 08:50:01;;;;;;;17.02;12.80;;;1.90;83.00;;;;;;5059910;28;20020;-71
2023/01/22 08:52:27;;;;;;;17.55;11.65;;;1.90;82.90;;;;;;5025545;28;20147;-75
2023/01/22 08:54:53;;;;;;;16.52;12.43;;;2.00;82.90;;;;;;5043342;28;20030;-71
2023/01/22 08:57:18;;;;;;;16.35;11.93;;;2.00;82.70;;;;;;5063789;28;20035;-73
2023/01/22 08:59:44;;;;;;;17.42;12.38;;;2.10;82.40;;;;;;5065091;28;20111;-74
2023/01/22 09:02:12;;;;;;;17.20;13.48;;;2.10;82.40;;;;;;5058107;28;20159;-74
2023/01/22 09:04:38;;;;;;;17.15;13.18;;;2.10;82.40;;;;;;5059777;28;20086;-74
2023/01/22 09:07:03;;;;;;;16.35;12.30;;;2.10;82.30;;;;;;5061608;28;20040;-73
2023/01/22 09:09:29;;;;;;;16.27;12.85;;;2.10;82.00;;;;;;5061150;28;20116;-74
2023/01/22 09:11:54;;;;;;;19.05;12.57;;;2.20;81.70;;;;;;5059674;28;20128;-75
2023/01/22 09:14:20;;;;;;;16.95;11.95;;;2.20;81.70;;;;;;5063803;28;20055;-73
2023/01/22 09:16:46;;;;;;;19.02;12.23;;;2.20;81.90;;;;;;5047176;28;20032;-74
2023/01/22 09:19:11;;;;;;;18.55;12.65;;;2.30;81.80;;;;;;5048068;28;20508;-74
2023/01/22 09:21:37;;;;;;;19.27;12.10;;;2.30;81.80;;;;;;5058062;28;20052;-75
2023/01/22 09:24:04;;;;;;;17.95;13.10;;;2.30;81.80;;;;;;5060295;28;20067;-76
2023/01/22 09:26:31;;;;;;;18.88;13.63;;;2.40;81.80;;;;;;5060126;28;20123;-75
2023/01/22 09:29:00;;;;;;;18.75;13.05;;;2.40;81.70;;;;;;5063612;28;20032;-74
2023/01/22 09:31:26;;;;;;;16.85;12.70;;;2.40;81.80;;;;;;5057635;28;20102;-76
2023/01/22 09:33:54;;;;;;;18.35;12.80;;;2.40;81.60;;;;;;5067203;28;20029;-76
2023/01/22 09:36:20;;;;;;;22.13;13.85;;;2.40;81.20;;;;;;5073441;28;20025;-77
2023/01/22 09:38:46;;;;;;;19.45;13.07;;;2.40;81.30;;;;;;5063364;28;20077;-76
2023/01/22 09:41:19;;;;;;;19.35;13.45;;;2.30;80.70;;;;;;5061670;28;20044;-77
2023/01/22 09:43:53;;;;;;;20.77;13.63;;;2.30;80.90;;;;;;5056351;28;20024;-74
2023/01/22 09:46:42;;;;;;;17.38;12.65;;;2.40;81.20;;;;;;5041633;28;20025;-75
2023/01/22 09:49:40;;;;;;;18.63;13.60;;;2.50;81.00;;;;;;5042680;28;20903;-75
2023/01/22 09:52:06;;;;;;;19.65;12.93;;;2.40;80.50;;;;;;5065031;28;20079;-74
2023/01/22 09:54:32;;;;;;;20.48;12.93;;;2.40;80.60;;;;;;5056816;28;20074;-77
2023/01/22 09:57:01;;;;;;;19.10;12.93;;;2.40;80.60;;;;;;5052211;28;20086;-74
2023/01/22 09:59:37;;;;;;;18.50;13.32;;;2.40;80.40;;;;;;5046293;28;20332;-74
2023/01/22 10:02:26;;;;;;;18.63;12.80;;;2.50;80.60;;;;;;5062010;28;20049;-74
2023/01/22 10:04:57;;;;;;;17.35;12.27;;;2.60;80.50;;;;;;5044053;28;20016;-74
2023/01/22 10:07:29;;;;;;;21.15;12.32;;;2.60;80.10;;;;;;5062332;28;20048;-74
2023/01/22 10:10:00;;;;;;;18.02;12.63;;;2.60;80.20;;;;;;5054758;28;20523;-73
2023/01/22 10:12:28;;;;;;;23.92;12.93;;;2.60;79.80;;;;;;5068158;28;20041;-76
2023/01/22 10:14:55;;;;;;;17.85;11.40;;;2.60;80.00;;;;;;5064037;28;20043;-76
2023/01/22 10:17:39;;;;;;;17.83;11.95;;;2.70;79.90;;;;;;5063280;28;20451;-73
2023/01/22 10:20:05;;;;;;;18.90;13.68;;;2.60;80.30;;;;;;5062936;28;20047;-73
2023/01/22 10:22:31;;;;;;;18.70;12.80;;;2.70;80.40;;;;;;5067131;28;20057;-73
2023/01/22 10:24:57;;;;;;;20.50;13.93;;;2.70;80.10;;;;;;5061860;28;20082;-73
2023/01/22 10:27:38;;;;;;;18.58;13.40;;;2.70;80.30;;;;;;5068870;28;20032;-73
2023/01/22 10:30:13;;;;;;;23.08;13.48;;;2.70;80.70;;;;;;5062730;28;20085;-73
2023/01/22 10:32:38;;;;;;;;;;;2.60;80.50;;;;;;5065832;28;20503;-74
2023/01/22 10:35:10;;;;;;;19.83;12.93;;;2.60;80.70;;;;;;5065896;28;19908;-75
2023/01/22 10:38:02;;;;;;;19.17;13.07;;;2.50;80.70;;;;;;5062075;28;20040;-74
2023/01/22 10:40:42;;;;;;;19.45;13.02;;;2.50;81.20;;;;;;5057094;28;20101;-74
2023/01/22 10:43:13;;;;;;;21.67;13.40;;;2.40;80.90;;;;;;5059827;28;20032;-75
2023/01/22 10:45:51;;;;;;;21.52;13.93;;;2.50;81.30;;;;;;5063900;28;20060;-74
2023/01/22 10:48:18;;;;;;;23.85;14.05;;;2.60;81.00;;;;;;5070017;28;20020;-74
2023/01/22 10:50:45;;;;;;;18.85;13.05;;;2.60;81.30;;;;;;5055735;28;20450;-75
2023/01/22 10:53:29;;;;;;;18.90;13.23;;;2.60;81.00;;;;;;5059275;28;20087;-74
2023/01/22 10:55:58;;;;;;;20.35;12.75;;;2.60;80.80;;;;;;5062118;28;20032;-74
2023/01/22 10:58:28;;;;;;;16.15;11.88;;;2.60;80.90;;;;;;5062785;28;20039;-74
2023/01/22 11:01:25;;;;;;;23.38;13.00;;;2.60;80.70;;;;;;5059596;28;20040;-75
2023/01/22 11:03:51;;;;;;;18.55;12.57;;;2.50;80.60;;;;;;5043199;28;21078;-77
2023/01/22 11:06:43;;;;;;;20.08;13.50;;;2.50;81.30;;;;;;5063420;28;20039;-75
2023/01/22 11:09:33;;;;;;;18.17;13.00;;;2.50;81.00;;;;;;5063840;28;20028;-76
2023/01/22 11:12:08;;;;;;;23.83;14.25;;;2.40;80.70;;;;;;5068695;28;20072;-75
2023/01/22 11:14:36;;;;;;;18.83;11.77;;;2.40;80.60;;;;;;5060048;28;20059;-76
2023/01/22 11:17:39;;;;;;;21.45;13.27;;;2.20;80.60;;;;;;5042667;28;20071;-74
2023/01/22 11:20:19;;;;;;;23.30;13.57;;;2.20;81.20;;;;;;5044319;28;20040;-75
2023/01/22 11:22:58;;;;;;;19.83;12.77;;;2.10;81.50;;;;;;5060115;28;20697;-78
2023/01/22 11:25:24;;;;;;;21.77;13.55;;;2.10;81.50;;;;;;5065549;28;20393;-75
2023/01/22 11:28:04;;;;;;;20.05;13.13;;;2.10;81.40;;;;;;5068299;28;20032;-76
2023/01/22 11:30:40;;;;;;;21.05;12.82;;;2.10;81.50;;;;;;5054742;28;20025;-76
2023/01/22 11:33:26;;;;;;;21.25;12.48;;;2.10;81.20;;;;;;5060648;28;20033;-79
2023/01/22 11:36:07;;;;;;;20.73;13.55;;;2.10;81.20;;;;;;5058601;28;20071;-75
2023/01/22 11:38:50;;;;;;;21.95;12.90;;;2.00;81.50;;;;;;5056133;28;20129;-76
2023/01/22 11:41:26;;;;;;;22.05;12.70;;;2.10;81.80;;;;;;5066194;28;20127;-73
2023/01/22 11:44:03;;;;;;;17.55;11.77;;;2.10;81.70;;;;;;5058864;28;20025;-73
2023/01/22 11:46:58;;;;;;;18.85;12.23;;;2.10;81.30;;;;;;5067992;28;20115;-75
2023/01/22 11:49:39;;;;;;;16.08;12.13;;;2.20;81.20;;;;;;5057534;28;20050;-75
2023/01/22 11:52:42;;;;;;;16.75;11.27;;;2.20;81.50;;;;;;5056482;28;20040;-76
2023/01/22 11:55:38;;;;;;;18.52;11.52;;;2.20;81.00;;;;;;5056575;28;20025;-76
2023/01/22 11:58:41;;;;;;;16.90;11.57;;;2.30;81.40;;;;;;5068687;28;20084;-77
2023/01/22 12:01:31;;;;;;;19.25;13.07;;;2.20;80.90;;;;;;5036987;28;20037;-76
2023/01/22 12:04:19;;;;;;;17.52;12.10;;;2.40;81.40;;;;;;5026069;28;20421;-78
2023/01/22 12:07:16;;;;;;;19.73;11.40;;;2.30;81.20;;;;;;5067438;28;21639;-77
2023/01/22 12:09:57;;;;;;;18.17;11.50;;;2.30;81.30;;;;;;5050168;28;21005;-76
2023/01/22 12:12:49;;;;;;;19.85;12.93;;;2.40;81.20;;;;;;5062937;28;20047;-76
2023/01/22 12:15:20;;;;;;;22.85;14.43;;;2.30;81.70;;;;;;5063790;28;20714;-74
2023/01/22 12:18:19;;;;;;;20.25;12.93;;;2.40;81.60;;;;;;5061115;28;20071;-73
2023/01/22 12:21:14;;;;;;;19.15;12.48;;;2.40;81.50;;;;;;5044749;28;20550;-77
2023/01/22 12:24:09;;;;;;;19.42;12.32;;;2.30;81.50;;;;;;5067451;28;20045;-75
2023/01/22 12:26:46;;;;;;;19.88;12.95;;;2.30;81.90;;;;;;5058270;28;20094;-76
2023/01/22 12:29:37;;;;;;;19.98;13.40;;;2.30;82.30;;;;;;5059014;28;20033;-76
2023/01/22 12:32:14;;;;;;;19.40;13.45;;;2.40;82.10;;;;;;5053068;28;20029;-75
2023/01/22 12:34:51;;;;;;;19.90;13.02;;;2.40;82.30;;;;;;5061741;28;20380;-75